createdAt,value
2024-01-16T00:01:52.417Z,9.37
2024-01-16T00:04:20.753Z,7.70
2024-01-16T00:06:49.033Z,9.70
2024-01-16T00:09:19.036Z,7.13
2024-01-16T00:11:47.249Z,8.70
2024-01-16T00:14:15.513Z,11.70
2024-01-16T00:16:47.959Z,9.57
2024-01-16T00:19:16.494Z,7.60
2024-01-16T00:21:47.378Z,8.03
2024-01-16T00:24:15.879Z,9.03
2024-01-16T00:26:46.100Z,9.23
2024-01-16T00:29:14.824Z,10.20
2024-01-16T00:31:44.686Z,11.53
2024-01-16T00:34:13.374Z,11.30
2024-01-16T00:36:41.766Z,10.30
2024-01-16T00:39:10.813Z,10.43
2024-01-16T00:41:39.074Z,10.77
2024-01-16T00:44:09.720Z,9.87
2024-01-16T00:46:37.917Z,10.27
2024-01-16T00:49:06.397Z,10.30
2024-01-16T00:51:34.902Z,9.77
2024-01-16T00:54:02.984Z,9.97
2024-01-16T00:56:33.650Z,14.47
2024-01-16T00:59:01.907Z,13.13
2024-01-16T01:01:31.500Z,11.20
2024-01-16T01:03:59.774Z,8.23
2024-01-16T01:06:29.124Z,8.47
2024-01-16T01:08:57.756Z,13.07
2024-01-16T01:11:26.592Z,13.77
2024-01-16T01:13:55.179Z,11.17
2024-01-16T01:16:23.524Z,11.23
2024-01-16T01:18:53.428Z,10.60
2024-01-16T01:21:22.817Z,11.30
2024-01-16T01:23:51.613Z,11.03
2024-01-16T01:26:20.864Z,10.67
2024-01-16T01:28:49.460Z,11.93
2024-01-16T01:31:17.982Z,12.30
2024-01-16T01:33:46.453Z,11.30
2024-01-16T01:36:16.677Z,11.30
2024-01-16T01:38:45.271Z,12.87
2024-01-16T01:41:14.276Z,12.33
2024-01-16T01:43:43.484Z,8.30
2024-01-16T01:46:14.081Z,13.80
2024-01-16T01:48:43.947Z,11.83
2024-01-16T01:51:14.376Z,14.83
2024-01-16T01:53:46.499Z,10.70
2024-01-16T01:56:19.155Z,9.57
2024-01-16T01:58:50.771Z,11.53
2024-01-16T02:01:21.670Z,12.83
2024-01-16T02:03:53.734Z,13.07
2024-01-16T02:06:22.459Z,11.03
2024-01-16T02:08:53.572Z,11.57
2024-01-16T02:11:22.838Z,10.83
2024-01-16T02:13:51.706Z,10.10
2024-01-16T02:16:21.569Z,10.70
2024-01-16T02:18:50.691Z,12.43
2024-01-16T02:21:21.713Z,9.90
2024-01-16T02:23:51.746Z,9.87
2024-01-16T02:26:20.928Z,9.57
2024-01-16T02:28:49.809Z,12.07
2024-01-16T02:31:19.330Z,12.43
2024-01-16T02:33:48.164Z,12.53
2024-01-16T02:36:17.003Z,10.20
2024-01-16T02:38:46.817Z,10.00
2024-01-16T02:41:18.719Z,10.40
2024-01-16T02:43:48.158Z,13.03
2024-01-16T02:46:16.797Z,11.90
2024-01-16T02:48:46.316Z,14.90
2024-01-16T02:51:15.284Z,16.67
2024-01-16T02:53:44.705Z,12.17
2024-01-16T02:56:13.475Z,9.03
2024-01-16T02:58:43.187Z,9.27
2024-01-16T03:01:12.820Z,15.87
2024-01-16T03:03:41.655Z,14.90
2024-01-16T03:06:10.254Z,10.63
2024-01-16T03:08:38.866Z,11.20
2024-01-16T03:11:07.185Z,9.17
2024-01-16T03:13:35.768Z,13.70
2024-01-16T03:16:08.817Z,12.40
2024-01-16T03:18:37.427Z,12.43
2024-01-16T03:21:05.762Z,12.80
2024-01-16T03:23:34.742Z,14.53
2024-01-16T03:26:05.018Z,8.77
2024-01-16T03:28:33.349Z,11.60
2024-01-16T03:31:01.885Z,13.07
2024-01-16T03:33:31.849Z,10.83
2024-01-16T03:36:00.425Z,13.10
2024-01-16T03:38:29.530Z,9.87
2024-01-16T03:40:58.020Z,17.37
2024-01-16T03:43:26.728Z,11.97
2024-01-16T03:45:55.110Z,11.53
2024-01-16T03:48:23.449Z,14.33
2024-01-16T03:50:55.568Z,14.40
2024-01-16T03:53:24.477Z,16.17
2024-01-16T03:55:53.621Z,12.90
2024-01-16T03:58:21.810Z,12.67
2024-01-16T04:00:52.080Z,12.73
2024-01-16T04:03:20.286Z,15.33
2024-01-16T04:05:49.508Z,12.97
2024-01-16T04:08:19.300Z,12.17
2024-01-16T04:10:48.009Z,17.80
2024-01-16T04:13:17.493Z,13.00
2024-01-16T04:15:46.125Z,11.37
2024-01-16T04:18:14.495Z,14.07
2024-01-16T04:20:43.069Z,14.03
2024-01-16T04:23:13.013Z,12.87
2024-01-16T04:25:42.870Z,14.80
2024-01-16T04:28:11.756Z,14.03
2024-01-16T04:30:40.430Z,11.87
2024-01-16T04:33:08.710Z,12.80
2024-01-16T04:35:37.072Z,11.40
2024-01-16T04:38:05.861Z,14.60
2024-01-16T04:40:34.686Z,10.80
2024-01-16T04:43:04.915Z,17.80
2024-01-16T04:45:33.167Z,14.50
2024-01-16T04:48:01.506Z,15.87
2024-01-16T04:50:33.154Z,12.13
2024-01-16T04:53:02.022Z,14.23
2024-01-16T04:55:30.699Z,15.10
2024-01-16T04:58:01.051Z,10.57
2024-01-16T05:00:30.858Z,16.53
2024-01-16T05:03:00.596Z,13.13
2024-01-16T05:05:30.241Z,16.10
2024-01-16T05:07:58.889Z,11.67
2024-01-16T05:10:27.343Z,13.03
2024-01-16T05:12:55.772Z,16.37
2024-01-16T05:15:24.096Z,11.60
2024-01-16T05:17:55.031Z,14.77
2024-01-16T05:20:23.858Z,13.50
2024-01-16T05:22:52.108Z,16.80
2024-01-16T05:25:21.252Z,34.67
2024-01-16T05:27:48.637Z,59.50
2024-01-16T05:30:17.365Z,20.87
2024-01-16T05:32:45.724Z,12.60
2024-01-16T05:35:15.860Z,14.83
2024-01-16T05:37:44.108Z,11.10
2024-01-16T05:40:13.191Z,12.50
2024-01-16T05:42:41.392Z,11.63
2024-01-16T05:45:11.100Z,14.20
2024-01-16T05:47:39.739Z,13.17
2024-01-16T05:50:10.526Z,16.03
2024-01-16T05:52:44.911Z,12.10
2024-01-16T05:55:14.454Z,13.53
2024-01-16T05:57:44.450Z,12.43
2024-01-16T06:00:13.977Z,16.20
2024-01-16T06:02:42.204Z,15.23
2024-01-16T06:05:10.627Z,16.13
2024-01-16T06:07:41.140Z,17.33
2024-01-16T06:10:10.649Z,16.67
2024-01-16T06:12:39.044Z,13.33
2024-01-16T06:15:08.226Z,15.73
2024-01-16T06:17:37.144Z,15.33
2024-01-16T06:20:07.878Z,15.63
2024-01-16T06:22:36.429Z,17.97
2024-01-16T06:25:07.964Z,19.67
2024-01-16T06:27:36.575Z,15.53
2024-01-16T06:30:06.312Z,16.03
2024-01-16T06:32:35.007Z,13.80
2024-01-16T06:35:04.150Z,16.57
2024-01-16T06:37:34.509Z,14.93
2024-01-16T06:40:04.229Z,17.10
2024-01-16T06:42:34.721Z,18.37
2024-01-16T06:45:04.029Z,21.10
2024-01-16T06:47:33.409Z,18.23
2024-01-16T06:50:04.886Z,17.23
2024-01-16T06:52:35.418Z,25.53
2024-01-16T06:55:05.334Z,17.90
2024-01-16T06:57:35.737Z,17.93
2024-01-16T07:00:04.672Z,18.37
2024-01-16T07:02:33.167Z,18.37
2024-01-16T07:05:01.908Z,17.83
2024-01-16T07:07:30.181Z,17.30
2024-01-16T07:09:59.163Z,17.67
2024-01-16T07:12:28.271Z,16.63
2024-01-16T07:14:58.171Z,16.53
2024-01-16T07:17:27.146Z,17.67
2024-01-16T07:19:55.814Z,15.47
2024-01-16T07:22:24.760Z,17.37
2024-01-16T07:24:53.119Z,21.83
2024-01-16T07:27:22.053Z,17.23
2024-01-16T07:29:50.448Z,19.27
2024-01-16T07:32:20.160Z,16.23
2024-01-16T07:34:48.525Z,16.47
2024-01-16T07:37:18.937Z,19.73
2024-01-16T07:39:47.084Z,17.07
2024-01-16T07:42:16.107Z,21.63
2024-01-16T07:44:45.216Z,17.30
2024-01-16T07:47:13.811Z,17.13
2024-01-16T07:49:44.618Z,16.17
2024-01-16T07:52:13.436Z,20.23
2024-01-16T07:54:42.806Z,15.90
2024-01-16T07:57:11.478Z,17.40
2024-01-16T07:59:39.814Z,22.93
2024-01-16T08:02:10.089Z,14.33
2024-01-16T08:04:38.570Z,16.27
2024-01-16T08:07:08.564Z,15.33
2024-01-16T08:09:37.832Z,16.60
2024-01-16T08:12:07.323Z,17.37
2024-01-16T08:14:36.011Z,20.17
2024-01-16T08:17:04.447Z,15.17
2024-01-16T08:19:34.052Z,17.33
2024-01-16T08:22:04.338Z,17.57
2024-01-16T08:24:35.262Z,18.17
2024-01-16T08:27:04.255Z,16.40
2024-01-16T08:29:32.688Z,17.23
2024-01-16T08:32:01.543Z,16.40
2024-01-16T08:34:30.201Z,16.60
2024-01-16T08:36:59.529Z,14.57
2024-01-16T08:39:29.194Z,14.73
2024-01-16T08:41:59.612Z,15.47
2024-01-16T08:44:28.416Z,18.23
2024-01-16T08:46:58.976Z,27.37
2024-01-16T08:49:27.177Z,20.73
2024-01-16T08:51:55.817Z,21.50
2024-01-16T08:54:24.821Z,16.57
2024-01-16T08:56:53.218Z,14.20
2024-01-16T08:59:25.183Z,16.23
2024-01-16T09:01:54.029Z,16.63
2024-01-16T09:04:23.212Z,20.07
2024-01-16T09:06:52.185Z,17.23
2024-01-16T09:09:21.328Z,16.87
2024-01-16T09:11:50.019Z,19.57
2024-01-16T09:14:21.597Z,17.43
2024-01-16T09:16:52.111Z,19.07
2024-01-16T09:19:21.416Z,15.70
2024-01-16T09:21:50.136Z,17.27
2024-01-16T09:24:20.299Z,17.47
2024-01-16T09:26:48.566Z,17.07
2024-01-16T09:29:17.801Z,19.07
2024-01-16T09:31:46.793Z,18.10
2024-01-16T09:34:19.075Z,17.47
2024-01-16T09:36:48.137Z,16.40
2024-01-16T09:39:19.308Z,20.40
2024-01-16T09:41:48.424Z,17.17
2024-01-16T09:44:17.876Z,16.87
2024-01-16T09:46:48.698Z,16.07
2024-01-16T09:49:20.369Z,20.50
2024-01-16T09:51:50.064Z,18.40
2024-01-16T09:54:20.225Z,18.47
2024-01-16T09:56:53.675Z,16.00
2024-01-16T09:59:23.792Z,16.93
2024-01-16T10:01:57.092Z,16.50
2024-01-16T10:04:29.077Z,15.40
2024-01-16T10:07:00.072Z,16.37
2024-01-16T10:09:28.196Z,18.63
2024-01-16T10:11:57.310Z,14.60
2024-01-16T10:14:26.824Z,16.30
2024-01-16T10:16:59.820Z,19.57
2024-01-16T10:19:42.582Z,19.20
2024-01-16T10:22:14.934Z,25.03
2024-01-16T10:24:43.447Z,13.83
2024-01-16T10:27:11.622Z,18.23
2024-01-16T10:29:57.265Z,17.97
2024-01-16T10:32:33.263Z,16.57
2024-01-16T10:35:08.602Z,23.17
2024-01-16T10:37:45.474Z,18.33
2024-01-16T10:40:22.510Z,17.70
2024-01-16T10:43:00.686Z,16.50
2024-01-16T10:45:29.961Z,17.93
2024-01-16T10:48:05.615Z,17.50
2024-01-16T10:50:37.160Z,17.70
2024-01-16T10:53:07.059Z,14.13
2024-01-16T10:55:45.021Z,18.90
2024-01-16T10:58:18.103Z,16.40
2024-01-16T11:00:53.187Z,17.37
2024-01-16T11:03:36.611Z,19.13
2024-01-16T11:06:09.209Z,17.73
2024-01-16T11:08:38.886Z,18.70
2024-01-16T11:11:09.550Z,19.03
2024-01-16T11:13:39.092Z,15.47
2024-01-16T11:16:08.746Z,14.53
2024-01-16T11:18:37.850Z,15.20
2024-01-16T11:21:14.560Z,17.57
2024-01-16T11:23:48.191Z,18.10
2024-01-16T11:26:34.890Z,18.03
2024-01-16T11:29:23.962Z,16.67
2024-01-16T11:32:01.089Z,23.43
2024-01-16T11:34:57.550Z,18.27
2024-01-16T11:37:34.720Z,16.53
2024-01-16T11:40:29.288Z,20.60
2024-01-16T11:42:58.351Z,19.07
2024-01-16T11:45:53.045Z,19.03
2024-01-16T11:48:22.492Z,23.00
2024-01-16T11:50:51.078Z,17.60
2024-01-16T11:53:39.516Z,18.83
2024-01-16T11:56:46.079Z,19.17
2024-01-16T11:59:42.953Z,18.70
2024-01-16T12:02:16.663Z,16.60
2024-01-16T12:04:44.882Z,16.00
2024-01-16T12:07:13.908Z,16.70
2024-01-16T12:09:44.709Z,21.90
2024-01-16T12:12:13.381Z,19.33
2024-01-16T12:14:41.476Z,16.87
2024-01-16T12:17:13.365Z,17.03
2024-01-16T12:19:44.399Z,15.90
2024-01-16T12:22:15.767Z,20.40
2024-01-16T12:24:46.460Z,19.87
2024-01-16T12:27:16.836Z,19.10
2024-01-16T12:29:45.135Z,125.23
2024-01-16T12:32:16.471Z,17.90
2024-01-16T12:34:50.861Z,20.97
2024-01-16T12:37:19.202Z,20.90
2024-01-16T12:39:48.919Z,15.77
2024-01-16T12:42:17.237Z,17.17
2024-01-16T12:44:47.245Z,13.87
2024-01-16T12:47:20.658Z,15.47
2024-01-16T12:49:49.380Z,19.67
2024-01-16T12:52:20.146Z,12.17
2024-01-16T12:54:51.490Z,14.33
2024-01-16T12:57:22.178Z,14.63
2024-01-16T12:59:51.299Z,13.23
2024-01-16T13:02:24.282Z,14.63
2024-01-16T13:05:00.045Z,13.37
2024-01-16T13:07:29.249Z,12.73
2024-01-16T13:10:14.110Z,13.13
2024-01-16T13:12:42.583Z,29.27
2024-01-16T13:15:12.584Z,14.77
2024-01-16T13:17:41.600Z,13.20
2024-01-16T13:20:11.875Z,11.03
2024-01-16T13:22:44.966Z,11.13
2024-01-16T13:25:18.299Z,17.77
2024-01-16T13:27:47.213Z,13.20
2024-01-16T13:30:15.989Z,8.70
2024-01-16T13:32:44.898Z,12.77
2024-01-16T13:35:14.299Z,10.63
2024-01-16T13:37:42.708Z,9.77
2024-01-16T13:40:12.610Z,10.53
2024-01-16T13:42:43.632Z,9.87
2024-01-16T13:45:14.660Z,10.50
2024-01-16T13:47:43.661Z,10.50
2024-01-16T13:50:13.113Z,11.23
2024-01-16T13:52:42.105Z,7.77
2024-01-16T13:55:10.941Z,13.23
2024-01-16T13:57:39.987Z,9.73
2024-01-16T14:00:14.535Z,11.07
2024-01-16T14:02:43.491Z,8.23
2024-01-16T14:05:14.672Z,8.23
2024-01-16T14:07:43.293Z,10.77
2024-01-16T14:10:13.309Z,11.20
2024-01-16T14:12:43.976Z,10.70
2024-01-16T14:15:19.967Z,11.33
2024-01-16T14:17:50.387Z,9.70
2024-01-16T14:20:24.252Z,11.73
2024-01-16T14:22:54.262Z,7.10
2024-01-16T14:25:23.350Z,15.83
2024-01-16T14:27:59.126Z,12.97
2024-01-16T14:30:29.965Z,9.80
2024-01-16T14:32:58.727Z,10.53
2024-01-16T14:35:27.504Z,8.13
2024-01-16T14:38:02.802Z,12.07
2024-01-16T14:40:32.794Z,10.37
2024-01-16T14:43:05.676Z,13.03
2024-01-16T14:45:38.163Z,13.13
2024-01-16T14:48:07.944Z,9.97
2024-01-16T14:50:36.820Z,16.53
2024-01-16T14:53:07.285Z,9.27
2024-01-16T14:55:39.433Z,10.13
2024-01-16T14:58:09.965Z,11.00
2024-01-16T15:00:39.892Z,8.93
2024-01-16T15:03:09.736Z,8.83
2024-01-16T15:05:39.885Z,5.13
2024-01-16T15:08:08.903Z,9.97
2024-01-16T15:10:41.685Z,7.13
2024-01-16T15:13:13.488Z,8.87
2024-01-16T15:15:44.806Z,10.27
2024-01-16T15:18:15.171Z,8.73
2024-01-16T15:20:45.085Z,8.90
2024-01-16T15:23:19.295Z,10.40
2024-01-16T15:25:49.508Z,11.27
2024-01-16T15:28:20.712Z,11.53
2024-01-16T15:30:51.878Z,9.07
2024-01-16T15:33:20.965Z,12.83
2024-01-16T15:35:50.609Z,9.17
2024-01-16T15:38:19.916Z,11.67
2024-01-16T15:40:49.732Z,15.63
2024-01-16T15:43:20.961Z,10.07
2024-01-16T15:45:51.997Z,13.37
2024-01-16T15:48:23.117Z,13.97
2024-01-16T15:50:51.970Z,11.13
2024-01-16T15:53:21.683Z,9.80
2024-01-16T15:55:53.792Z,12.27
2024-01-16T15:58:23.327Z,11.13
2024-01-16T16:00:55.096Z,13.40
2024-01-16T16:03:25.336Z,13.20
2024-01-16T16:05:56.180Z,15.57
2024-01-16T16:08:27.886Z,13.07
2024-01-16T16:11:03.343Z,14.43
2024-01-16T16:13:34.269Z,11.37
2024-01-16T16:16:10.027Z,9.60
2024-01-16T16:18:41.090Z,11.57
2024-01-16T16:21:10.781Z,14.17
2024-01-16T16:23:40.395Z,11.17
2024-01-16T16:26:10.459Z,13.17
2024-01-16T16:28:39.869Z,14.43
2024-01-16T16:31:13.180Z,16.73
2024-01-16T16:33:43.195Z,14.60
2024-01-16T16:36:20.194Z,17.10
2024-01-16T16:38:51.942Z,18.50
2024-01-16T16:41:23.346Z,17.13
2024-01-16T16:43:53.836Z,16.53
2024-01-16T16:46:27.218Z,45.73
2024-01-16T16:48:58.771Z,20.03
2024-01-16T16:51:32.706Z,17.33
2024-01-16T16:54:02.771Z,25.37
2024-01-16T16:56:34.555Z,27.13
2024-01-16T16:59:04.910Z,22.37
2024-01-16T17:01:41.326Z,21.40
2024-01-16T17:04:16.172Z,22.10
2024-01-16T17:06:45.748Z,23.70
2024-01-16T17:09:14.388Z,22.27
2024-01-16T17:11:42.767Z,23.97
2024-01-16T17:14:12.165Z,23.23
2024-01-16T17:16:42.173Z,23.57
2024-01-16T17:19:12.501Z,21.40
2024-01-16T17:21:43.038Z,23.73
2024-01-16T17:24:11.626Z,20.57
2024-01-16T17:26:41.190Z,22.43
2024-01-16T17:29:09.718Z,15.20
2024-01-16T17:31:38.919Z,18.57
2024-01-16T17:34:09.729Z,22.53
2024-01-16T17:36:40.901Z,31.80
2024-01-16T17:39:11.163Z,48.00
2024-01-16T17:41:40.812Z,51.90
2024-01-16T17:44:11.235Z,47.60
2024-01-16T17:46:44.146Z,31.17
2024-01-16T17:49:15.253Z,25.50
2024-01-16T17:51:43.737Z,20.80
2024-01-16T17:54:14.062Z,23.50
2024-01-16T17:56:48.141Z,26.57
2024-01-16T17:59:17.157Z,16.70
2024-01-16T18:01:45.672Z,21.20
2024-01-16T18:04:16.120Z,23.47
2024-01-16T18:06:45.416Z,22.30
2024-01-16T18:09:14.032Z,24.73
2024-01-16T18:11:56.301Z,30.30
2024-01-16T18:14:27.022Z,32.43
2024-01-16T18:17:03.003Z,62.87
2024-01-16T18:19:38.975Z,56.10
2024-01-16T18:22:15.620Z,45.87
2024-01-16T18:24:48.000Z,25.80
2024-01-16T18:27:22.843Z,24.07
2024-01-16T18:29:52.050Z,26.33
2024-01-16T18:32:20.476Z,24.73
2024-01-16T18:34:50.217Z,26.93
2024-01-16T18:37:21.033Z,20.63
2024-01-16T18:39:50.901Z,22.47
2024-01-16T18:42:23.561Z,19.93
2024-01-16T18:44:53.331Z,25.43
2024-01-16T18:47:22.765Z,26.77
2024-01-16T18:49:53.398Z,21.73
2024-01-16T18:52:22.663Z,21.33
2024-01-16T18:54:52.064Z,22.40
2024-01-16T18:57:21.070Z,29.07
2024-01-16T18:59:49.803Z,31.67
2024-01-16T19:02:22.313Z,31.37
2024-01-16T19:04:53.836Z,31.07
2024-01-16T19:07:24.799Z,32.83
2024-01-16T19:09:53.209Z,34.43
2024-01-16T19:12:21.763Z,31.40
2024-01-16T19:14:50.610Z,30.77
2024-01-16T19:17:19.890Z,27.43
2024-01-16T19:19:48.415Z,30.30
2024-01-16T19:22:18.809Z,29.13
2024-01-16T19:24:49.112Z,32.60
2024-01-16T19:27:19.662Z,32.50
2024-01-16T19:29:49.494Z,33.93
2024-01-16T19:32:18.811Z,33.37
2024-01-16T19:34:47.823Z,32.87
2024-01-16T19:37:17.849Z,34.13
2024-01-16T19:39:48.059Z,40.43
2024-01-16T19:42:17.456Z,41.90
2024-01-16T19:44:49.626Z,41.23
2024-01-16T19:47:18.117Z,41.63
2024-01-16T19:49:48.821Z,37.27
2024-01-16T19:52:20.466Z,39.03
2024-01-16T19:54:49.128Z,37.70
2024-01-16T19:57:17.740Z,38.33
2024-01-16T19:59:46.313Z,35.27
2024-01-16T20:02:18.158Z,38.90
2024-01-16T20:04:48.128Z,45.87
2024-01-16T20:07:19.450Z,30.47
2024-01-16T20:09:50.486Z,28.47
2024-01-16T20:12:35.873Z,35.13
2024-01-16T20:15:18.050Z,33.77
2024-01-16T20:17:50.024Z,36.47
2024-01-16T20:20:20.700Z,33.63
2024-01-16T20:22:50.410Z,34.33
2024-01-16T20:25:20.978Z,33.03
2024-01-16T20:27:50.196Z,44.83
2024-01-16T20:30:20.250Z,37.30
2024-01-16T20:32:53.992Z,32.53
2024-01-16T20:35:25.281Z,28.53
2024-01-16T20:37:54.396Z,24.03
2024-01-16T20:40:24.876Z,25.10
2024-01-16T20:42:53.044Z,34.13
2024-01-16T20:45:22.172Z,40.73
2024-01-16T20:47:51.538Z,35.73
2024-01-16T20:50:23.414Z,39.10
2024-01-16T20:52:52.872Z,37.07
2024-01-16T20:55:27.013Z,26.53
2024-01-16T20:58:01.946Z,29.03
2024-01-16T21:00:43.405Z,25.90
2024-01-16T21:03:14.169Z,23.57
2024-01-16T21:05:43.911Z,28.73
2024-01-16T21:08:14.333Z,24.13
2024-01-16T21:10:47.128Z,27.03
2024-01-16T21:13:16.944Z,26.93
2024-01-16T21:15:47.731Z,25.17
2024-01-16T21:18:17.909Z,28.33
2024-01-16T21:20:50.641Z,32.70
2024-01-16T21:23:20.732Z,26.90
2024-01-16T21:25:53.695Z,24.13
2024-01-16T21:28:25.738Z,22.83
2024-01-16T21:30:56.141Z,32.30
2024-01-16T21:33:26.577Z,36.37
2024-01-16T21:35:55.928Z,35.07
2024-01-16T21:38:25.012Z,42.03
2024-01-16T21:40:56.043Z,38.77
2024-01-16T21:43:24.798Z,40.37
2024-01-16T21:45:54.766Z,35.97
2024-01-16T21:48:23.340Z,28.10
2024-01-16T21:50:52.838Z,23.80
2024-01-16T21:53:23.045Z,29.00
2024-01-16T21:55:51.489Z,24.17
2024-01-16T21:58:21.415Z,22.77
2024-01-16T22:00:54.520Z,23.77
2024-01-16T22:03:23.106Z,22.73
2024-01-16T22:05:52.266Z,23.40
2024-01-16T22:08:20.713Z,18.97
2024-01-16T22:10:49.152Z,20.83
2024-01-16T22:13:19.701Z,22.40
2024-01-16T22:15:51.782Z,23.53
2024-01-16T22:18:20.387Z,21.77
2024-01-16T22:20:49.002Z,24.33
2024-01-16T22:23:17.738Z,23.13
2024-01-16T22:25:46.385Z,20.27
2024-01-16T22:28:14.928Z,22.27
2024-01-16T22:30:45.054Z,22.83
2024-01-16T22:33:16.153Z,24.07
2024-01-16T22:35:46.140Z,26.53
2024-01-16T22:38:16.277Z,24.10
2024-01-16T22:40:45.079Z,24.47
2024-01-16T22:43:13.212Z,21.70
2024-01-16T22:45:41.929Z,23.87
2024-01-16T22:48:12.623Z,21.13
2024-01-16T22:50:43.798Z,22.40
2024-01-16T22:53:12.565Z,27.07
2024-01-16T22:55:42.744Z,30.83
2024-01-16T22:58:10.753Z,30.57
2024-01-16T23:00:40.961Z,35.10
2024-01-16T23:03:10.597Z,30.37
2024-01-16T23:05:40.490Z,27.93
2024-01-16T23:08:11.969Z,26.07
2024-01-16T23:10:40.569Z,27.30
2024-01-16T23:13:11.078Z,30.27
2024-01-16T23:15:39.273Z,34.90
2024-01-16T23:18:08.060Z,43.37
2024-01-16T23:20:36.371Z,37.97
2024-01-16T23:23:07.877Z,37.17
2024-01-16T23:25:38.192Z,37.43
2024-01-16T23:28:06.462Z,43.63
2024-01-16T23:30:36.147Z,32.23
2024-01-16T23:33:06.287Z,31.67
2024-01-16T23:35:35.008Z,30.80
2024-01-16T23:38:03.481Z,31.30
2024-01-16T23:40:31.873Z,30.73
2024-01-16T23:43:03.419Z,27.90
2024-01-16T23:45:33.974Z,27.03
2024-01-16T23:48:02.472Z,23.37
2024-01-16T23:50:33.735Z,28.27
2024-01-16T23:53:01.735Z,23.33
2024-01-16T23:55:29.921Z,25.57
2024-01-16T23:57:59.034Z,23.97
